Time;durP1;ratioP1;P1;durP2;ratioP2;P2;SDS_P1;SDS_P2;PMS_P1;PMS_P2;Temp;Humidity;BMP_temperature;BMP_pressure;BME280_temperature;BME280_humidity;BME280_pressure;Samples;Min_cycle;Max_cycle;Signal;HPM_P1;HPM_P2
2023/07/21 00:02:08;;;;;;;;;;;;;;;14.65;38.52;95194.94;5035831;28;20018;-75
2023/07/21 00:04:35;;;;;;;;;;;;;;;13.83;40.04;95196.22;5034755;28;23579;-76
2023/07/21 00:07:00;;;;;;;;;;;;;;;14.18;40.11;95198.63;5036491;28;20486;-76
2023/07/21 00:09:26;;;;;;;;;;;;;;;14.00;40.40;95193.97;5037746;28;20247;-75
2023/07/21 00:11:51;;;;;;;;;;;;;;;13.82;40.60;95184.72;5037817;28;20243;-76
2023/07/21 00:14:16;;;;;;;;;;;;;;;13.59;40.63;95193.19;5037619;28;19929;-76
2023/07/21 00:16:42;;;;;;;;;;;;;;;14.10;40.02;95193.53;5037099;28;19951;-76
2023/07/21 00:19:07;;;;;;;;;;;;;;;13.64;40.43;95185.38;5028922;28;20060;-76
2023/07/21 00:21:34;;;;;;;;;;;;;;;13.64;40.47;95196.09;5036364;28;20577;-76
2023/07/21 00:23:59;;;;;;;;;;;;;;;13.50;40.47;95194.44;5056161;28;20032;-77
2023/07/21 00:26:24;;;;;;;;;;;;;;;13.38;41.06;95187.03;5041443;28;20480;-77
2023/07/21 00:28:50;;;;;;;;;;;;;;;13.48;41.49;95185.78;5037846;28;20512;-77
2023/07/21 00:31:15;;;;;;;;;;;;;;;13.40;41.66;95182.31;5039078;28;19921;-76
2023/07/21 00:33:40;;;;;;;;;;;;;;;13.58;40.67;95183.53;5040424;28;19947;-75
2023/07/21 00:36:06;;;;;;;;;;;;;;;13.48;40.98;95178.59;5038352;28;19956;-76
2023/07/21 00:38:31;;;;;;;;;;;;;;;12.80;42.44;95177.72;5040884;28;19928;-76
2023/07/21 00:40:56;;;;;;;;;;;;;;;12.25;44.09;95190.13;5040855;28;19978;-76
2023/07/21 00:43:22;;;;;;;;;;;;;;;12.81;43.11;95182.03;5040818;28;19921;-75
2023/07/21 00:45:47;;;;;;;;;;;;;;;12.62;43.12;95178.31;5037268;28;19925;-76
2023/07/21 00:48:12;;;;;;;;;;;;;;;12.79;43.58;95176.91;5040801;28;20197;-75
2023/07/21 00:50:41;;;;;;;;;;;;;;;12.84;43.88;95184.31;5040458;28;20253;-76
2023/07/21 00:53:06;;;;;;;;;;;;;;;12.98;43.35;95173.66;5039421;28;20393;-76
2023/07/21 00:55:32;;;;;;;;;;;;;;;12.35;43.48;95183.56;5022646;28;19947;-76
2023/07/21 00:57:57;;;;;;;;;;;;;;;12.07;45.06;95182.63;5038691;28;20035;-76
2023/07/21 01:00:22;;;;;;;;;;;;;;;11.63;45.87;95180.09;5053588;28;19938;-77
2023/07/21 01:02:49;;;;;;;;;;;;;;;11.40;46.31;95180.38;5030750;28;20467;-76
2023/07/21 01:05:15;;;;;;;;;;;;;;;11.60;45.80;95177.81;5038176;28;20294;-75
2023/07/21 01:07:40;;;;;;;;;;;;;;;12.75;43.37;95169.50;5040400;28;19921;-76
2023/07/21 01:10:07;;;;;;;;;;;;;;;13.26;42.50;95164.66;5038607;28;19956;-76
2023/07/21 01:12:32;;;;;;;;;;;;;;;13.62;41.39;95163.38;5035024;28;20518;-77
2023/07/21 01:14:57;;;;;;;;;;;;;;;13.42;41.81;95163.38;5051505;28;19981;-76
2023/07/21 01:17:22;;;;;;;;;;;;;;;13.86;40.85;95161.03;4987869;28;20327;-76
2023/07/21 01:22:24;;;;;;;;;;;;;;;14.19;40.35;95154.78;5027189;23;19960;-75
2023/07/21 01:24:49;;;;;;;;;;;;;;;14.33;39.92;95158.25;5004005;28;19929;-75
2023/07/21 01:27:15;;;;;;;;;;;;;;;14.51;39.43;95147.84;5016737;28;20349;-75
2023/07/21 01:29:41;;;;;;;;;;;;;;;14.64;38.77;95145.09;5018936;28;19917;-75
2023/07/21 01:32:09;;;;;;;;;;;;;;;14.72;38.99;95150.19;5012177;28;19966;-75
2023/07/21 01:34:34;;;;;;;;;;;;;;;14.76;38.79;95141.75;5035258;28;20373;-75
2023/07/21 01:37:00;;;;;;;;;;;;;;;14.84;38.50;95144.16;5019759;28;19978;-75
2023/07/21 01:39:25;;;;;;;;;;;;;;;14.87;38.57;95134.88;5008450;28;19913;-75
2023/07/21 01:41:50;;;;;;;;;;;;;;;14.84;38.71;95130.75;5011804;28;19952;-75
2023/07/21 01:44:15;;;;;;;;;;;;;;;14.89;38.37;95128.25;5009574;28;19929;-75
2023/07/21 01:46:41;;;;;;;;;;;;;;;14.91;38.44;95131.53;5015698;28;20388;-75
2023/07/21 01:49:06;;;;;;;;;;;;;;;14.87;38.68;95134.88;5009080;28;20453;-75
2023/07/21 01:51:31;;;;;;;;;;;;;;;14.88;38.55;95139.19;4996047;28;19990;-75
2023/07/21 01:53:58;;;;;;;;;;;;;;;14.91;38.60;95134.22;4998458;28;20151;-75
2023/07/21 01:56:30;;;;;;;;;;;;;;;14.94;38.48;95124.91;5013757;28;19983;-76
2023/07/21 01:58:56;;;;;;;;;;;;;;;14.94;38.60;95123.06;4987360;28;20377;-75
2023/07/21 02:01:21;;;;;;;;;;;;;;;14.85;38.53;95121.69;5002568;28;19922;-75
2023/07/21 02:03:46;;;;;;;;;;;;;;;14.82;38.81;95114.09;5015546;28;19917;-75
2023/07/21 02:06:14;;;;;;;;;;;;;;;14.86;38.66;95115.31;5017335;28;20133;-75
2023/07/21 02:08:40;;;;;;;;;;;;;;;14.95;38.29;95116.66;5034256;28;20016;-75
2023/07/21 02:11:05;;;;;;;;;;;;;;;14.97;38.33;95111.09;5015352;28;20453;-75
2023/07/21 02:13:31;;;;;;;;;;;;;;;15.03;38.28;95104.03;5018821;28;20340;-75
2023/07/21 02:15:56;;;;;;;;;;;;;;;15.02;38.27;95105.09;5018368;28;20381;-75
2023/07/21 02:18:22;;;;;;;;;;;;;;;15.00;37.98;95099.09;5033877;28;19925;-75
2023/07/21 02:20:47;;;;;;;;;;;;;;;14.98;38.14;95105.50;5012947;28;20404;-75
2023/07/21 02:23:12;;;;;;;;;;;;;;;15.02;38.07;95107.75;4986424;28;20030;-75
2023/07/21 02:25:38;;;;;;;;;;;;;;;15.03;38.18;95099.47;4984371;28;19925;-75
2023/07/21 02:28:03;;;;;;;;;;;;;;;15.04;38.13;95097.63;5000703;28;20052;-75
2023/07/21 02:30:29;;;;;;;;;;;;;;;15.05;38.36;95099.25;5000687;28;20500;-75
2023/07/21 02:32:54;;;;;;;;;;;;;;;15.05;38.43;95093.91;4981744;28;19922;-75
2023/07/21 02:35:19;;;;;;;;;;;;;;;15.02;38.52;95097.84;4999438;28;19928;-75
2023/07/21 02:37:44;;;;;;;;;;;;;;;14.95;38.83;95097.91;4999336;28;20640;-75
2023/07/21 02:40:10;;;;;;;;;;;;;;;15.01;38.56;95096.22;5001096;28;19944;-75
2023/07/21 02:42:35;;;;;;;;;;;;;;;15.01;38.80;95103.41;4998914;28;20669;-75
2023/07/21 02:45:00;;;;;;;;;;;;;;;15.04;38.67;95103.81;5000912;28;19924;-75
2023/07/21 02:47:26;;;;;;;;;;;;;;;15.16;38.48;95108.47;4998433;28;20301;-75
2023/07/21 02:49:51;;;;;;;;;;;;;;;15.06;39.28;95115.13;5015876;28;19921;-75
2023/07/21 02:52:17;;;;;;;;;;;;;;;14.07;40.74;95111.81;4998858;28;20326;-75
2023/07/21 02:54:42;;;;;;;;;;;;;;;14.36;40.38;95098.06;5001017;28;19926;-75
2023/07/21 02:57:07;;;;;;;;;;;;;;;14.68;40.55;95098.06;5000643;28;19956;-75
2023/07/21 02:59:33;;;;;;;;;;;;;;;14.86;40.03;95104.59;5000232;28;19996;-75
2023/07/21 03:01:59;;;;;;;;;;;;;;;14.92;39.32;95094.84;5003018;28;19928;-75
2023/07/21 03:04:24;;;;;;;;;;;;;;;14.92;41.06;95098.34;5004277;28;19999;-75
2023/07/21 03:06:49;;;;;;;;;;;;;;;14.83;41.33;95102.34;4996209;28;19937;-75
2023/07/21 03:09:15;;;;;;;;;;;;;;;14.85;39.65;95106.44;4974380;28;19984;-75
2023/07/21 03:11:40;;;;;;;;;;;;;;;14.55;41.24;95101.66;5000326;28;20345;-75
2023/07/21 03:14:06;;;;;;;;;;;;;;;13.99;42.06;95108.53;4999510;28;19921;-75
2023/07/21 03:16:31;;;;;;;;;;;;;;;13.96;44.41;95112.47;4979777;28;19929;-76
2023/07/21 03:18:57;;;;;;;;;;;;;;;13.77;43.21;95108.81;4980410;28;20458;-75
2023/07/21 03:21:22;;;;;;;;;;;;;;;13.93;42.46;95107.53;4995111;28;20016;-75
2023/07/21 03:23:47;;;;;;;;;;;;;;;14.13;42.95;95096.75;4981087;28;19952;-75
2023/07/21 03:26:13;;;;;;;;;;;;;;;14.31;42.92;95089.88;4995499;28;20138;-75
2023/07/21 03:28:38;;;;;;;;;;;;;;;14.38;41.18;95081.78;4982824;28;19997;-75
2023/07/21 03:31:03;;;;;;;;;;;;;;;14.46;41.94;95078.84;4998973;28;20329;-75
2023/07/21 03:33:28;;;;;;;;;;;;;;;14.39;45.02;95083.44;4989275;28;19929;-75
2023/07/21 03:35:58;;;;;;;;;;;;;;;14.37;42.76;95077.44;4980622;28;20187;-75
2023/07/21 03:38:23;;;;;;;;;;;;;;;14.39;44.70;95073.56;4979208;28;19972;-75
2023/07/21 03:40:48;;;;;;;;;;;;;;;14.33;44.32;95069.88;4981932;28;20590;-75
2023/07/21 03:43:15;;;;;;;;;;;;;;;14.25;43.22;95061.28;4997547;28;19921;-75
2023/07/21 03:45:40;;;;;;;;;;;;;;;14.17;43.32;95056.97;5000281;28;19921;-76
2023/07/21 03:48:06;;;;;;;;;;;;;;;13.95;46.45;95063.47;5015317;28;19963;-75
2023/07/21 03:50:31;;;;;;;;;;;;;;;13.90;43.39;95046.44;4999913;28;20000;-75
2023/07/21 03:52:56;;;;;;;;;;;;;;;13.95;44.22;95050.09;5013226;28;19921;-75
2023/07/21 03:55:23;;;;;;;;;;;;;;;14.08;42.02;95045.72;4999970;28;20435;-75
2023/07/21 03:57:48;;;;;;;;;;;;;;;13.86;45.27;95053.19;5017088;28;19963;-75
2023/07/21 04:00:14;;;;;;;;;;;;;;;13.89;44.97;95050.97;5005513;28;19956;-75
2023/07/21 04:02:39;;;;;;;;;;;;;;;13.92;45.12;95057.72;5004274;28;20382;-75
2023/07/21 04:05:04;;;;;;;;;;;;;;;14.05;46.19;95056.84;4999294;28;20015;-75
2023/07/21 04:07:30;;;;;;;;;;;;;;;14.08;46.08;95053.75;5019235;28;19918;-75
2023/07/21 04:09:55;;;;;;;;;;;;;;;14.08;43.20;95049.19;5002007;28;19975;-75
2023/07/21 04:12:21;;;;;;;;;;;;;;;14.15;45.84;95054.53;5003045;28;19917;-75
2023/07/21 04:14:46;;;;;;;;;;;;;;;14.14;45.83;95052.88;5004075;28;19920;-75
2023/07/21 04:17:11;;;;;;;;;;;;;;;14.09;44.33;95047.34;5003686;28;20417;-75
2023/07/21 04:19:36;;;;;;;;;;;;;;;14.19;44.34;95046.88;5019123;28;19936;-75
2023/07/21 04:22:02;;;;;;;;;;;;;;;14.33;44.07;95043.09;4996883;28;20345;-75
2023/07/21 04:24:27;;;;;;;;;;;;;;;14.38;44.59;95041.63;5003543;28;19952;-75
2023/07/21 04:26:52;;;;;;;;;;;;;;;14.42;44.69;95049.00;5003358;28;20109;-75
2023/07/21 04:29:18;;;;;;;;;;;;;;;14.41;45.10;95050.03;5002305;28;19971;-75
2023/07/21 04:31:43;;;;;;;;;;;;;;;14.44;44.20;95054.13;5003907;28;19976;-75
2023/07/21 04:34:08;;;;;;;;;;;;;;;14.45;44.91;95045.88;5002010;28;19925;-75
2023/07/21 04:36:35;;;;;;;;;;;;;;;14.48;45.34;95044.63;5002807;28;19918;-75
2023/07/21 04:39:00;;;;;;;;;;;;;;;14.52;43.39;95039.69;5003538;28;19971;-74
2023/07/21 04:41:25;;;;;;;;;;;;;;;14.56;45.77;95041.72;5002596;28;19929;-75
2023/07/21 04:43:50;;;;;;;;;;;;;;;14.64;43.75;95040.63;5003750;28;19922;-75
2023/07/21 04:46:16;;;;;;;;;;;;;;;14.74;43.66;95045.50;5003394;28;20012;-75
2023/07/21 04:48:43;;;;;;;;;;;;;;;14.81;45.10;95048.97;5018735;28;19917;-75
2023/07/21 04:51:08;;;;;;;;;;;;;;;14.85;44.36;95043.97;5017037;28;20485;-75
2023/07/21 04:53:33;;;;;;;;;;;;;;;14.84;44.47;95050.38;5002696;28;19929;-75
2023/07/21 04:55:59;;;;;;;;;;;;;;;14.90;43.20;95048.69;5002813;28;19913;-76
2023/07/21 04:58:24;;;;;;;;;;;;;;;14.93;45.55;95053.59;5001965;28;20413;-75
2023/07/21 05:00:50;;;;;;;;;;;;;;;14.97;43.52;95047.59;5002061;28;19921;-75
2023/07/21 05:03:15;;;;;;;;;;;;;;;15.16;42.34;95055.66;5015889;28;20029;-75
2023/07/21 05:05:40;;;;;;;;;;;;;;;15.10;45.14;95094.09;5001671;28;20207;-75
2023/07/21 05:08:06;;;;;;;;;;;;;;;14.09;43.61;95074.13;5018617;28;19921;-75
2023/07/21 05:10:31;;;;;;;;;;;;;;;13.94;44.45;95099.28;5002332;28;19949;-75
2023/07/21 05:12:57;;;;;;;;;;;;;;;11.82;50.84;95095.09;5002808;28;20622;-75
2023/07/21 05:15:24;;;;;;;;;;;;;;;11.52;52.24;95087.34;5017529;28;19913;-75
2023/07/21 05:17:49;;;;;;;;;;;;;;;11.45;52.54;95089.13;5002598;28;19924;-75
2023/07/21 05:20:14;;;;;;;;;;;;;;;11.22;53.90;95098.25;5003502;28;19917;-74
2023/07/21 05:22:40;;;;;;;;;;;;;;;11.45;52.92;95099.81;4997762;28;19929;-75
2023/07/21 05:25:05;;;;;;;;;;;;;;;11.26;53.57;95100.31;5000648;28;19929;-75
2023/07/21 05:27:31;;;;;;;;;;;;;;;11.76;52.60;95106.53;5002102;28;19984;-74
2023/07/21 05:29:58;;;;;;;;;;;;;;;11.83;52.26;95111.91;5001075;28;19921;-75
2023/07/21 05:32:23;;;;;;;;;;;;;;;12.11;50.52;95098.50;5002598;28;19921;-75
2023/07/21 05:34:49;;;;;;;;;;;;;;;12.00;50.64;95093.72;5002166;28;19920;-75
2023/07/21 05:37:14;;;;;;;;;;;;;;;11.83;52.17;95095.91;4999859;28;19941;-75
2023/07/21 05:39:39;;;;;;;;;;;;;;;12.28;48.99;95098.94;5003339;28;19917;-75
2023/07/21 05:42:05;;;;;;;;;;;;;;;12.40;50.94;95095.69;5001526;28;19921;-75
2023/07/21 05:44:32;;;;;;;;;;;;;;;12.68;50.28;95092.03;5002119;28;19976;-75
2023/07/21 05:46:58;;;;;;;;;;;;;;;12.87;47.35;95095.75;5002878;28;19927;-75
2023/07/21 05:49:23;;;;;;;;;;;;;;;13.25;49.17;95096.16;5001049;28;19978;-75
2023/07/21 05:51:48;;;;;;;;;;;;;;;13.53;46.43;95092.41;5000283;28;19929;-75
2023/07/21 05:54:14;;;;;;;;;;;;;;;13.76;46.47;95088.41;4999990;28;19918;-75
2023/07/21 05:56:39;;;;;;;;;;;;;;;14.10;46.11;95078.44;5000915;28;19979;-76
2023/07/21 05:59:04;;;;;;;;;;;;;;;14.25;43.73;95085.38;5017492;28;20004;-75
2023/07/21 06:01:30;;;;;;;;;;;;;;;14.20;45.17;95076.13;4999902;28;19960;-75
2023/07/21 06:03:56;;;;;;;;;;;;;;;14.12;46.15;95067.50;5016367;28;19983;-75
2023/07/21 06:06:23;;;;;;;;;;;;;;;14.28;43.49;95071.56;5006758;28;20393;-75
2023/07/21 06:08:48;;;;;;;;;;;;;;;14.43;43.03;95071.25;4998542;28;19918;-75
2023/07/21 06:11:13;;;;;;;;;;;;;;;14.53;42.58;95076.13;4981180;28;20449;-75
2023/07/21 06:13:38;;;;;;;;;;;;;;;14.70;42.82;95084.47;4990997;28;20003;-75
2023/07/21 06:16:04;;;;;;;;;;;;;;;14.70;42.97;95071.06;5001606;28;19925;-75
2023/07/21 06:18:29;;;;;;;;;;;;;;;14.81;44.33;95070.41;4999652;28;19921;-75
2023/07/21 06:20:54;;;;;;;;;;;;;;;15.02;44.35;95070.25;4994147;28;19933;-75
2023/07/21 06:23:19;;;;;;;;;;;;;;;15.17;43.25;95069.88;5016327;28;20008;-75
2023/07/21 06:25:45;;;;;;;;;;;;;;;15.31;42.96;95065.22;5001111;28;19918;-75
2023/07/21 06:28:11;;;;;;;;;;;;;;;15.37;44.53;95064.34;5001077;28;19918;-75
2023/07/21 06:30:36;;;;;;;;;;;;;;;15.31;41.79;95059.84;5014246;28;19929;-76
2023/07/21 06:33:05;;;;;;;;;;;;;;;15.42;40.74;95047.56;4994286;28;19960;-76
2023/07/21 06:35:31;;;;;;;;;;;;;;;15.57;41.98;95050.72;4977861;28;19928;-76
2023/07/21 06:37:56;;;;;;;;;;;;;;;15.67;42.26;95050.19;4993304;28;19925;-77
2023/07/21 06:40:22;;;;;;;;;;;;;;;15.75;41.77;95047.19;4999352;28;19965;-77
2023/07/21 06:42:47;;;;;;;;;;;;;;;15.82;39.67;95046.31;5001348;28;19922;-76
2023/07/21 06:45:12;;;;;;;;;;;;;;;15.95;42.15;95045.31;5001468;28;19940;-77
2023/07/21 06:47:38;;;;;;;;;;;;;;;15.98;41.96;95043.00;5000743;28;19917;-71
2023/07/21 06:50:03;;;;;;;;;;;;;;;15.96;40.34;95049.66;4982764;28;20017;-71
2023/07/21 06:52:28;;;;;;;;;;;;;;;16.15;42.29;95046.94;4974214;28;20272;-71
2023/07/21 06:54:54;;;;;;;;;;;;;;;15.70;43.02;95049.75;4979354;28;20003;-71
2023/07/21 06:57:19;;;;;;;;;;;;;;;15.63;44.30;95059.72;4986119;28;19925;-71
2023/07/21 06:59:45;;;;;;;;;;;;;;;15.73;43.39;95065.41;4996468;28;19917;-71
2023/07/21 07:02:11;;;;;;;;;;;;;;;15.92;40.82;95057.34;5008684;28;19952;-71
2023/07/21 07:04:36;;;;;;;;;;;;;;;16.05;42.44;95067.06;4997880;28;19923;-71
2023/07/21 07:07:01;;;;;;;;;;;;;;;15.96;40.62;95065.75;4998788;28;19922;-71
2023/07/21 07:09:26;;;;;;;;;;;;;;;16.07;43.26;95064.16;4998389;28;19936;-71
2023/07/21 07:11:52;;;;;;;;;;;;;;;16.07;42.42;95070.34;4997269;28;19924;-71
2023/07/21 07:14:17;;;;;;;;;;;;;;;16.14;42.17;95067.56;4998190;28;19925;-71
2023/07/21 07:16:43;;;;;;;;;;;;;;;15.93;40.26;95072.41;4997885;28;19917;-71
2023/07/21 07:19:08;;;;;;;;;;;;;;;16.19;41.96;95078.47;4998701;28;20369;-71
2023/07/21 07:21:33;;;;;;;;;;;;;;;16.67;40.24;95069.75;4946038;28;1840804;-71
2023/07/21 07:23:59;;;;;;;;;;;;;;;16.63;40.02;95072.09;5000047;28;19929;-71
2023/07/21 07:26:24;;;;;;;;;;;;;;;16.62;39.53;95065.06;4998274;28;20441;-71
2023/07/21 07:28:49;;;;;;;;;;;;;;;16.90;38.96;95067.13;4997416;28;20579;-71
2023/07/21 07:31:14;;;;;;;;;;;;;;;17.25;37.77;95073.59;5008857;28;19931;-71
2023/07/21 07:33:40;;;;;;;;;;;;;;;17.48;38.53;95077.34;4999139;28;19921;-71
2023/07/21 07:36:05;;;;;;;;;;;;;;;17.70;37.51;95075.88;5001750;28;19921;-71
2023/07/21 07:38:30;;;;;;;;;;;;;;;17.90;36.99;95073.66;5000144;28;19932;-71
2023/07/21 07:41:06;;;;;;;;;;;;;;;18.10;36.77;95071.59;5002314;28;19925;-71
2023/07/21 07:43:32;;;;;;;;;;;;;;;18.24;36.65;95070.28;5004161;28;19987;-72
2023/07/21 07:45:57;;;;;;;;;;;;;;;18.11;37.05;95073.22;5001539;28;20008;-71
2023/07/21 07:48:23;;;;;;;;;;;;;;;17.75;38.46;95076.00;5003885;28;20047;-71
2023/07/21 07:50:48;;;;;;;;;;;;;;;17.93;38.18;95080.44;5002925;28;19956;-71
2023/07/21 07:53:14;;;;;;;;;;;;;;;17.82;38.75;95081.25;5003275;28;19936;-71
2023/07/21 07:55:39;;;;;;;;;;;;;;;18.19;37.07;95078.25;5003923;28;19993;-71
2023/07/21 07:58:05;;;;;;;;;;;;;;;18.18;36.64;95079.28;5002285;28;19922;-71
2023/07/21 08:00:30;;;;;;;;;;;;;;;18.30;36.74;95069.31;5015115;28;20005;-71
2023/07/21 08:02:56;;;;;;;;;;;;;;;18.25;36.64;95079.97;5015718;28;19930;-71
2023/07/21 08:05:21;;;;;;;;;;;;;;;18.48;37.61;95080.09;5001281;28;19921;-71
2023/07/21 08:07:48;;;;;;;;;;;;;;;18.65;36.20;95086.38;5003048;28;20016;-71
2023/07/21 08:10:13;;;;;;;;;;;;;;;18.42;36.33;95084.59;5001292;28;20398;-71
2023/07/21 08:12:39;;;;;;;;;;;;;;;18.24;36.95;95083.75;4999246;28;19975;-71
2023/07/21 08:15:04;;;;;;;;;;;;;;;18.03;36.96;95080.66;4999996;28;19924;-71
2023/07/21 08:17:29;;;;;;;;;;;;;;;18.04;37.16;95086.84;5001937;28;20044;-71
2023/07/21 08:19:55;;;;;;;;;;;;;;;17.54;37.35;95087.16;5001115;28;19968;-71
2023/07/21 08:22:20;;;;;;;;;;;;;;;17.38;37.81;95082.50;5002025;28;19936;-71
2023/07/21 08:24:45;;;;;;;;;;;;;;;17.61;36.98;95088.91;5001946;28;20402;-70
2023/07/21 08:27:10;;;;;;;;;;;;;;;17.70;37.06;95097.41;5001791;28;19917;-71
2023/07/21 08:29:36;;;;;;;;;;;;;;;17.47;39.00;95097.22;5002075;28;19926;-70
2023/07/21 08:32:01;;;;;;;;;;;;;;;16.92;39.57;95095.66;4999030;28;19968;-70
2023/07/21 08:34:26;;;;;;;;;;;;;;;16.38;40.72;95097.25;4998771;28;19967;-71
2023/07/21 08:36:52;;;;;;;;;;;;;;;16.73;39.65;95091.16;5002642;28;19928;-71
2023/07/21 08:39:17;;;;;;;;;;;;;;;17.00;39.69;95076.50;5002208;28;19968;-71
2023/07/21 08:41:46;;;;;;;;;;;;;;;17.21;39.40;95077.00;5000656;28;19972;-71
2023/07/21 08:44:12;;;;;;;;;;;;;;;17.28;39.76;95094.63;5000443;28;20032;-71
2023/07/21 08:46:37;;;;;;;;;;;;;;;17.19;40.78;95085.28;5015074;28;19926;-71
2023/07/21 08:49:03;;;;;;;;;;;;;;;17.47;39.72;95082.97;5001301;28;19964;-71
2023/07/21 08:51:28;;;;;;;;;;;;;;;17.45;39.18;95083.19;4996231;28;20513;-71
2023/07/21 08:53:53;;;;;;;;;;;;;;;17.83;39.15;95080.19;4999611;28;19956;-71
2023/07/21 08:56:18;;;;;;;;;;;;;;;17.76;38.71;95091.94;4997905;28;20021;-76
2023/07/21 08:58:44;;;;;;;;;;;;;;;18.00;40.72;95091.91;5017710;28;20468;-76
2023/07/21 09:01:09;;;;;;;;;;;;;;;18.36;38.86;95090.97;5000684;28;19918;-76
2023/07/21 09:03:34;;;;;;;;;;;;;;;18.68;38.42;95087.78;5002257;28;20199;-76
2023/07/21 09:06:01;;;;;;;;;;;;;;;17.34;39.64;95089.38;5006683;28;19956;-76
2023/07/21 09:08:27;;;;;;;;;;;;;;;18.18;38.65;95090.06;5004270;28;20344;-76
2023/07/21 09:10:56;;;;;;;;;;;;;;;18.76;38.01;95083.88;5017965;28;20341;-76
2023/07/21 09:13:21;;;;;;;;;;;;;;;18.77;38.61;95082.81;5010854;28;19932;-67
2023/07/21 09:15:49;;;;;;;;;;;;;;;18.95;37.95;95095.25;4998478;28;19917;-67
2023/07/21 09:18:15;;;;;;;;;;;;;;;18.61;37.90;95089.81;4985150;28;20531;-68
2023/07/21 09:20:40;;;;;;;;;;;;;;;18.45;38.48;95089.50;4978288;28;19917;-67
2023/07/21 09:23:06;;;;;;;;;;;;;;;18.56;38.26;95083.22;4975230;28;20021;-68
2023/07/21 09:25:31;;;;;;;;;;;;;;;18.62;38.74;95089.56;4976830;28;19928;-68
2023/07/21 09:27:57;;;;;;;;;;;;;;;18.69;37.58;95084.84;4979808;28;20008;-67
2023/07/21 09:30:23;;;;;;;;;;;;;;;18.72;38.16;95088.94;4978247;28;19957;-67
2023/07/21 09:32:48;;;;;;;;;;;;;;;18.98;37.17;95099.31;4972878;28;19918;-67
2023/07/21 09:35:14;;;;;;;;;;;;;;;19.24;35.79;95100.53;4976032;28;19996;-67
2023/07/21 09:37:39;;;;;;;;;;;;;;;18.69;37.88;95101.03;4981310;28;19961;-67
2023/07/21 09:40:06;;;;;;;;;;;;;;;19.14;35.40;95103.09;4980173;28;19945;-68
2023/07/21 09:42:32;;;;;;;;;;;;;;;19.38;36.49;95101.03;4979254;28;19965;-68
2023/07/21 09:44:57;;;;;;;;;;;;;;;19.31;36.46;95095.81;4978186;28;19936;-68
2023/07/21 09:47:22;;;;;;;;;;;;;;;19.49;34.94;95095.81;4979553;28;19914;-68
2023/07/21 09:49:48;;;;;;;;;;;;;;;18.94;36.75;95102.50;4980156;28;19926;-68
2023/07/21 09:52:17;;;;;;;;;;;;;;;19.24;35.92;95099.75;4978795;28;19918;-67
2023/07/21 09:55:03;;;;;;;;;;;;;;;19.18;35.60;95096.16;4993127;28;20020;-67
2023/07/21 09:57:28;;;;;;;;;;;;;;;19.22;35.32;95097.28;4978087;28;19926;-67
2023/07/21 09:59:58;;;;;;;;;;;;;;;17.86;37.90;95093.22;4978776;28;20444;-67
2023/07/21 10:02:24;;;;;;;;;;;;;;;19.01;36.70;95096.13;4975641;28;20441;-67
2023/07/21 10:04:49;;;;;;;;;;;;;;;19.45;34.44;95099.00;4976204;28;19933;-67
2023/07/21 10:07:14;;;;;;;;;;;;;;;18.35;35.85;95098.22;4979974;28;19932;-67
2023/07/21 10:09:39;;;;;;;;;;;;;;;18.48;35.94;95097.09;4980223;28;20370;-66
2023/07/21 10:12:12;;;;;;;;;;;;;;;18.44;37.13;95093.25;4969409;28;19929;-67
2023/07/21 10:14:38;;;;;;;;;;;;;;;19.36;34.45;95099.66;4974666;28;20450;-67
2023/07/21 10:17:03;;;;;;;;;;;;;;;19.44;33.78;95096.53;4981276;28;19926;-67
2023/07/21 10:19:29;;;;;;;;;;;;;;;18.98;35.17;95096.63;4977406;28;20367;-67
2023/07/21 10:21:54;;;;;;;;;;;;;;;19.58;34.85;95103.22;4975540;28;20227;-68
2023/07/21 10:24:24;;;;;;;;;;;;;;;20.63;32.17;95107.22;4977670;28;19930;-68
2023/07/21 10:26:53;;;;;;;;;;;;;;;20.86;31.12;95090.69;4978378;28;20441;-67
2023/07/21 10:29:19;;;;;;;;;;;;;;;20.20;32.71;95099.72;4977247;28;19928;-68
2023/07/21 10:31:54;;;;;;;;;;;;;;;21.28;31.73;95096.41;4986277;28;19922;-76
2023/07/21 10:34:22;;;;;;;;;;;;;;;21.64;29.78;95093.97;4981718;28;19922;-75
2023/07/21 10:36:49;;;;;;;;;;;;;;;22.01;29.53;95100.41;4978660;28;19922;-76
2023/07/21 10:39:19;;;;;;;;;;;;;;;22.29;28.46;95089.38;4977062;28;19914;-76
2023/07/21 10:41:44;;;;;;;;;;;;;;;22.37;29.59;95088.06;5001322;28;19936;-76
2023/07/21 10:44:10;;;;;;;;;;;;;;;22.45;29.44;95089.41;4992549;28;20294;-75
2023/07/21 10:46:36;;;;;;;;;;;;;;;22.60;28.98;95100.31;4981999;28;19921;-76
2023/07/21 10:49:01;;;;;;;;;;;;;;;22.58;29.09;95104.41;4979158;28;20021;-76
2023/07/21 10:51:26;;;;;;;;;;;;;;;22.55;29.35;95097.63;4999293;28;19921;-76
2023/07/21 10:53:51;;;;;;;;;;;;;;;22.40;29.95;95093.75;4996691;28;19969;-76
2023/07/21 10:56:17;;;;;;;;;;;;;;;22.45;29.62;95092.13;5015113;28;19929;-76
2023/07/21 10:58:42;;;;;;;;;;;;;;;21.88;29.03;95096.25;5014531;28;19918;-76
2023/07/21 11:01:08;;;;;;;;;;;;;;;22.02;28.82;95096.63;5014515;28;20481;-77
2023/07/21 11:03:33;;;;;;;;;;;;;;;21.64;29.61;95093.97;4993422;28;20008;-76
2023/07/21 11:05:58;;;;;;;;;;;;;;;21.29;28.63;95091.84;4995359;28;20382;-76
2023/07/21 11:08:26;;;;;;;;;;;;;;;21.24;29.73;95089.88;4993540;28;20231;-76
2023/07/21 11:10:52;;;;;;;;;;;;;;;20.96;29.01;95084.53;4998058;28;19917;-76
2023/07/21 11:13:17;;;;;;;;;;;;;;;21.15;29.87;95083.31;4997082;28;19922;-75
2023/07/21 11:15:49;;;;;;;;;;;;;;;20.64;30.41;95090.75;4990153;28;20314;-75
2023/07/21 11:18:15;;;;;;;;;;;;;;;20.61;29.82;95089.31;4992921;28;19926;-75
2023/07/21 11:20:40;;;;;;;;;;;;;;;20.53;30.56;95095.19;4996350;28;19948;-75
2023/07/21 11:23:05;;;;;;;;;;;;;;;20.42;30.38;95098.84;4998654;28;19929;-76
2023/07/21 11:25:31;;;;;;;;;;;;;;;20.86;29.57;95090.69;5013580;28;19925;-76
2023/07/21 11:28:00;;;;;;;;;;;;;;;20.76;29.82;95087.88;4985403;28;19921;-76
2023/07/21 11:30:26;;;;;;;;;;;;;;;20.64;30.78;95087.22;5014008;28;19926;-76
2023/07/21 11:33:06;;;;;;;;;;;;;;;20.71;31.18;95085.13;4998236;28;19921;-76
2023/07/21 11:35:32;;;;;;;;;;;;;;;20.99;31.66;95075.91;5014827;28;19924;-76
2023/07/21 11:37:57;;;;;;;;;;;;;;;20.77;31.05;95084.09;4999279;28;19964;-76
2023/07/21 11:40:25;;;;;;;;;;;;;;;20.13;32.07;95088.28;5014356;28;19987;-76
2023/07/21 11:42:52;;;;;;;;;;;;;;;20.33;32.48;95091.19;4997360;28;20294;-76
2023/07/21 11:45:37;;;;;;;;;;;;;;;20.41;32.02;95089.13;5013370;28;20358;-76
2023/07/21 11:48:17;;;;;;;;;;;;;;;21.19;30.14;95082.56;4999732;28;20073;-76
2023/07/21 11:50:52;;;;;;;;;;;;;;;20.76;29.41;95087.88;5013553;28;20361;-77
2023/07/21 11:53:18;;;;;;;;;;;;;;;21.32;28.37;95092.16;4998495;28;19948;-76
2023/07/21 11:55:44;;;;;;;;;;;;;;;21.23;28.68;95082.84;4996672;28;20012;-77
2023/07/21 11:58:09;;;;;;;;;;;;;;;20.94;29.42;95086.66;4998183;28;19921;-76
2023/07/21 12:00:35;;;;;;;;;;;;;;;19.29;31.93;95094.44;4998979;28;19925;-75
2023/07/21 12:03:01;;;;;;;;;;;;;;;19.15;32.71;95093.94;4998124;28;19967;-76
2023/07/21 12:05:26;;;;;;;;;;;;;;;20.23;31.68;95091.09;4993543;28;19957;-77
2023/07/21 12:07:52;;;;;;;;;;;;;;;19.18;33.42;95099.63;5015060;28;20024;-77
2023/07/21 12:10:18;;;;;;;;;;;;;;;19.37;32.88;95098.63;4995778;28;20047;-77
2023/07/21 12:12:43;;;;;;;;;;;;;;;19.24;33.40;95100.53;5014845;28;19914;-76
2023/07/21 12:15:10;;;;;;;;;;;;;;;18.82;34.04;95097.19;5015361;28;19918;-76
2023/07/21 12:17:36;;;;;;;;;;;;;;;18.70;35.40;95096.47;5003216;28;19962;-76
2023/07/21 12:20:03;;;;;;;;;;;;;;;18.33;35.08;95086.03;5003702;28;19918;-76
2023/07/21 12:22:29;;;;;;;;;;;;;;;18.04;35.86;95092.22;5002718;28;19932;-76
2023/07/21 12:24:54;;;;;;;;;;;;;;;18.07;36.89;95097.13;5001686;28;20318;-76
2023/07/21 12:27:19;;;;;;;;;;;;;;;17.61;39.22;95096.97;5018553;28;19917;-76
2023/07/21 12:29:45;;;;;;;;;;;;;;;17.60;37.46;95098.00;5017454;28;20097;-76
2023/07/21 12:32:10;;;;;;;;;;;;;;;17.49;37.61;95103.19;5002675;28;20402;-76
2023/07/21 12:34:35;;;;;;;;;;;;;;;16.37;41.09;95101.81;5003013;28;20390;-76
2023/07/21 12:37:00;;;;;;;;;;;;;;;17.11;41.28;95105.28;5017579;28;19955;-76
2023/07/21 12:39:26;;;;;;;;;;;;;;;15.81;42.56;95114.47;5018721;28;19959;-76
2023/07/21 12:41:51;;;;;;;;;;;;;;;15.74;44.64;95114.53;5002919;28;19917;-76
2023/07/21 12:44:16;;;;;;;;;;;;;;;15.78;44.64;95106.84;5001209;28;19924;-76